sensor_id;sensor_type;location;lat;lon;timestamp;P1;durP1;ratioP1;P2;durP2;ratioP2
52184;SDS011;38160;52.876;18.778;2022-08-19T00:02:07;17.32;;;14.45;;
52184;SDS011;38160;52.876;18.778;2022-08-19T00:04:39;17.15;;;13.80;;
52184;SDS011;38160;52.876;18.778;2022-08-19T00:07:10;17.62;;;13.90;;
52184;SDS011;38160;52.876;18.778;2022-08-19T00:09:42;17.02;;;14.78;;
52184;SDS011;38160;52.876;18.778;2022-08-19T00:12:14;18.00;;;14.38;;
52184;SDS011;38160;52.876;18.778;2022-08-19T00:14:46;20.23;;;15.13;;
52184;SDS011;38160;52.876;18.778;2022-08-19T00:17:17;17.82;;;14.07;;
52184;SDS011;38160;52.876;18.778;2022-08-19T00:19:49;19.07;;;14.58;;
52184;SDS011;38160;52.876;18.778;2022-08-19T00:22:21;21.25;;;14.60;;
52184;SDS011;38160;52.876;18.778;2022-08-19T00:24:53;21.10;;;15.00;;
52184;SDS011;38160;52.876;18.778;2022-08-19T00:27:25;18.85;;;14.73;;
52184;SDS011;38160;52.876;18.778;2022-08-19T00:29:56;19.90;;;15.88;;
52184;SDS011;38160;52.876;18.778;2022-08-19T00:32:29;24.27;;;15.10;;
52184;SDS011;38160;52.876;18.778;2022-08-19T00:35:01;21.50;;;15.90;;
52184;SDS011;38160;52.876;18.778;2022-08-19T00:37:33;90.10;;;18.25;;
52184;SDS011;38160;52.876;18.778;2022-08-19T00:40:06;22.42;;;15.35;;
52184;SDS011;38160;52.876;18.778;2022-08-19T00:42:39;31.00;;;15.85;;
52184;SDS011;38160;52.876;18.778;2022-08-19T00:45:12;20.57;;;14.80;;
52184;SDS011;38160;52.876;18.778;2022-08-19T00:47:47;20.20;;;15.00;;
52184;SDS011;38160;52.876;18.778;2022-08-19T00:50:19;22.50;;;15.80;;
52184;SDS011;38160;52.876;18.778;2022-08-19T00:52:52;21.73;;;15.45;;
52184;SDS011;38160;52.876;18.778;2022-08-19T00:55:25;24.45;;;16.50;;
52184;SDS011;38160;52.876;18.778;2022-08-19T00:58:04;20.00;;;15.20;;
52184;SDS011;38160;52.876;18.778;2022-08-19T01:00:38;21.75;;;15.23;;
52184;SDS011;38160;52.876;18.778;2022-08-19T01:03:11;21.05;;;15.58;;
52184;SDS011;38160;52.876;18.778;2022-08-19T01:05:47;20.43;;;16.35;;
52184;SDS011;38160;52.876;18.778;2022-08-19T01:08:22;20.48;;;16.05;;
52184;SDS011;38160;52.876;18.778;2022-08-19T01:10:55;20.62;;;16.95;;
52184;SDS011;38160;52.876;18.778;2022-08-19T01:16:05;19.07;;;15.63;;
52184;SDS011;38160;52.876;18.778;2022-08-19T01:18:41;19.20;;;15.00;;
52184;SDS011;38160;52.876;18.778;2022-08-19T01:21:34;20.50;;;17.00;;
52184;SDS011;38160;52.876;18.778;2022-08-19T01:24:08;19.85;;;17.00;;
52184;SDS011;38160;52.876;18.778;2022-08-19T01:26:40;20.68;;;15.43;;
52184;SDS011;38160;52.876;18.778;2022-08-19T01:29:14;24.43;;;16.70;;
52184;SDS011;38160;52.876;18.778;2022-08-19T01:31:45;23.18;;;16.27;;
52184;SDS011;38160;52.876;18.778;2022-08-19T01:34:17;21.85;;;16.45;;
52184;SDS011;38160;52.876;18.778;2022-08-19T01:36:50;23.38;;;16.55;;
52184;SDS011;38160;52.876;18.778;2022-08-19T01:39:23;22.52;;;16.37;;
52184;SDS011;38160;52.876;18.778;2022-08-19T01:41:56;18.83;;;16.20;;
52184;SDS011;38160;52.876;18.778;2022-08-19T01:44:27;22.17;;;16.48;;
52184;SDS011;38160;52.876;18.778;2022-08-19T01:46:59;24.27;;;15.98;;
52184;SDS011;38160;52.876;18.778;2022-08-19T01:49:31;22.15;;;16.82;;
52184;SDS011;38160;52.876;18.778;2022-08-19T01:52:03;25.90;;;17.40;;
52184;SDS011;38160;52.876;18.778;2022-08-19T01:54:36;20.08;;;15.20;;
52184;SDS011;38160;52.876;18.778;2022-08-19T01:57:08;20.70;;;16.48;;
52184;SDS011;38160;52.876;18.778;2022-08-19T01:59:43;20.90;;;16.50;;
52184;SDS011;38160;52.876;18.778;2022-08-19T02:02:17;21.30;;;15.28;;
52184;SDS011;38160;52.876;18.778;2022-08-19T02:04:48;22.90;;;16.05;;
52184;SDS011;38160;52.876;18.778;2022-08-19T02:07:20;21.62;;;16.05;;
52184;SDS011;38160;52.876;18.778;2022-08-19T02:10:06;23.92;;;16.57;;
52184;SDS011;38160;52.876;18.778;2022-08-19T02:12:50;26.02;;;17.12;;
52184;SDS011;38160;52.876;18.778;2022-08-19T02:15:23;23.65;;;17.07;;
52184;SDS011;38160;52.876;18.778;2022-08-19T02:17:58;21.05;;;16.30;;
52184;SDS011;38160;52.876;18.778;2022-08-19T02:20:30;20.77;;;17.23;;
52184;SDS011;38160;52.876;18.778;2022-08-19T02:23:02;22.17;;;16.35;;
52184;SDS011;38160;52.876;18.778;2022-08-19T02:25:37;22.15;;;17.05;;
52184;SDS011;38160;52.876;18.778;2022-08-19T02:28:10;20.62;;;17.15;;
52184;SDS011;38160;52.876;18.778;2022-08-19T02:30:42;20.82;;;15.45;;
52184;SDS011;38160;52.876;18.778;2022-08-19T02:33:14;20.32;;;15.95;;
52184;SDS011;38160;52.876;18.778;2022-08-19T02:35:46;20.40;;;16.00;;
52184;SDS011;38160;52.876;18.778;2022-08-19T02:38:18;21.15;;;16.65;;
52184;SDS011;38160;52.876;18.778;2022-08-19T02:41:00;21.85;;;16.97;;
52184;SDS011;38160;52.876;18.778;2022-08-19T02:43:38;20.35;;;15.93;;
52184;SDS011;38160;52.876;18.778;2022-08-19T02:46:16;21.02;;;17.00;;
52184;SDS011;38160;52.876;18.778;2022-08-19T02:48:55;21.55;;;16.67;;
52184;SDS011;38160;52.876;18.778;2022-08-19T02:51:38;19.92;;;16.62;;
52184;SDS011;38160;52.876;18.778;2022-08-19T02:54:11;22.42;;;17.20;;
52184;SDS011;38160;52.876;18.778;2022-08-19T02:56:46;20.88;;;17.50;;
52184;SDS011;38160;52.876;18.778;2022-08-19T02:59:22;22.10;;;17.05;;
52184;SDS011;38160;52.876;18.778;2022-08-19T03:01:58;22.65;;;18.23;;
52184;SDS011;38160;52.876;18.778;2022-08-19T03:04:36;19.20;;;16.45;;
52184;SDS011;38160;52.876;18.778;2022-08-19T03:07:09;22.67;;;17.50;;
52184;SDS011;38160;52.876;18.778;2022-08-19T03:09:49;19.90;;;17.07;;
52184;SDS011;38160;52.876;18.778;2022-08-19T03:12:30;19.55;;;17.40;;
52184;SDS011;38160;52.876;18.778;2022-08-19T03:15:11;25.10;;;18.52;;
52184;SDS011;38160;52.876;18.778;2022-08-19T03:17:52;21.12;;;16.73;;
52184;SDS011;38160;52.876;18.778;2022-08-19T03:22:58;24.37;;;16.77;;
52184;SDS011;38160;52.876;18.778;2022-08-19T03:25:36;25.97;;;16.45;;
52184;SDS011;38160;52.876;18.778;2022-08-19T03:28:13;21.45;;;16.52;;
52184;SDS011;38160;52.876;18.778;2022-08-19T03:30:59;23.32;;;17.57;;
52184;SDS011;38160;52.876;18.778;2022-08-19T03:33:37;20.68;;;15.95;;
52184;SDS011;38160;52.876;18.778;2022-08-19T03:36:11;24.07;;;15.98;;
52184;SDS011;38160;52.876;18.778;2022-08-19T03:38:47;20.55;;;16.15;;
52184;SDS011;38160;52.876;18.778;2022-08-19T03:41:24;23.10;;;15.83;;
52184;SDS011;38160;52.876;18.778;2022-08-19T03:43:59;23.45;;;16.32;;
52184;SDS011;38160;52.876;18.778;2022-08-19T03:46:31;21.40;;;16.10;;
52184;SDS011;38160;52.876;18.778;2022-08-19T03:49:04;19.73;;;15.03;;
52184;SDS011;38160;52.876;18.778;2022-08-19T03:51:38;19.73;;;15.88;;
52184;SDS011;38160;52.876;18.778;2022-08-19T03:54:10;20.30;;;15.60;;
52184;SDS011;38160;52.876;18.778;2022-08-19T03:56:45;24.98;;;15.95;;
52184;SDS011;38160;52.876;18.778;2022-08-19T03:59:21;21.25;;;15.25;;
52184;SDS011;38160;52.876;18.778;2022-08-19T04:02:00;18.32;;;15.45;;
52184;SDS011;38160;52.876;18.778;2022-08-19T04:04:34;21.07;;;15.00;;
52184;SDS011;38160;52.876;18.778;2022-08-19T04:07:08;18.47;;;15.03;;
52184;SDS011;38160;52.876;18.778;2022-08-19T04:09:42;17.57;;;13.83;;
52184;SDS011;38160;52.876;18.778;2022-08-19T04:12:13;19.62;;;13.62;;
52184;SDS011;38160;52.876;18.778;2022-08-19T04:14:45;18.98;;;13.62;;
52184;SDS011;38160;52.876;18.778;2022-08-19T04:17:18;19.50;;;13.93;;
52184;SDS011;38160;52.876;18.778;2022-08-19T04:19:49;17.02;;;14.30;;
52184;SDS011;38160;52.876;18.778;2022-08-19T04:22:21;20.32;;;14.38;;
52184;SDS011;38160;52.876;18.778;2022-08-19T04:24:53;17.82;;;14.43;;
52184;SDS011;38160;52.876;18.778;2022-08-19T04:27:25;21.65;;;14.15;;
52184;SDS011;38160;52.876;18.778;2022-08-19T04:29:57;21.25;;;14.75;;
52184;SDS011;38160;52.876;18.778;2022-08-19T04:32:28;22.62;;;14.50;;
52184;SDS011;38160;52.876;18.778;2022-08-19T04:35:01;23.90;;;15.40;;
52184;SDS011;38160;52.876;18.778;2022-08-19T04:37:33;19.10;;;13.50;;
52184;SDS011;38160;52.876;18.778;2022-08-19T04:40:05;18.77;;;13.65;;
52184;SDS011;38160;52.876;18.778;2022-08-19T04:42:46;20.17;;;14.25;;
52184;SDS011;38160;52.876;18.778;2022-08-19T04:45:17;18.00;;;12.73;;
52184;SDS011;38160;52.876;18.778;2022-08-19T04:47:49;22.32;;;14.10;;
52184;SDS011;38160;52.876;18.778;2022-08-19T04:50:26;20.82;;;13.88;;
52184;SDS011;38160;52.876;18.778;2022-08-19T04:52:58;17.57;;;13.30;;
52184;SDS011;38160;52.876;18.778;2022-08-19T04:55:29;20.35;;;13.60;;
52184;SDS011;38160;52.876;18.778;2022-08-19T04:58:01;18.27;;;12.78;;
52184;SDS011;38160;52.876;18.778;2022-08-19T05:00:33;21.40;;;14.07;;
52184;SDS011;38160;52.876;18.778;2022-08-19T05:03:07;18.65;;;12.73;;
52184;SDS011;38160;52.876;18.778;2022-08-19T05:05:40;19.27;;;12.90;;
52184;SDS011;38160;52.876;18.778;2022-08-19T05:08:12;18.95;;;13.18;;
52184;SDS011;38160;52.876;18.778;2022-08-19T05:10:50;16.57;;;12.33;;
52184;SDS011;38160;52.876;18.778;2022-08-19T05:13:23;18.15;;;12.90;;
52184;SDS011;38160;52.876;18.778;2022-08-19T05:15:55;18.70;;;12.53;;
52184;SDS011;38160;52.876;18.778;2022-08-19T05:18:29;18.82;;;12.23;;
52184;SDS011;38160;52.876;18.778;2022-08-19T05:21:19;55.38;;;15.75;;
52184;SDS011;38160;52.876;18.778;2022-08-19T05:24:11;32.90;;;13.30;;
52184;SDS011;38160;52.876;18.778;2022-08-19T05:26:45;51.50;;;14.73;;
52184;SDS011;38160;52.876;18.778;2022-08-19T05:29:20;35.35;;;13.40;;
52184;SDS011;38160;52.876;18.778;2022-08-19T05:31:53;42.33;;;13.50;;
52184;SDS011;38160;52.876;18.778;2022-08-19T05:34:26;52.65;;;14.38;;
52184;SDS011;38160;52.876;18.778;2022-08-19T05:36:59;26.90;;;13.00;;
52184;SDS011;38160;52.876;18.778;2022-08-19T05:39:34;48.28;;;14.10;;
52184;SDS011;38160;52.876;18.778;2022-08-19T05:42:09;21.00;;;12.18;;
52184;SDS011;38160;52.876;18.778;2022-08-19T05:44:43;29.98;;;13.50;;
52184;SDS011;38160;52.876;18.778;2022-08-19T05:47:15;26.07;;;12.00;;
52184;SDS011;38160;52.876;18.778;2022-08-19T05:49:49;22.40;;;11.88;;
52184;SDS011;38160;52.876;18.778;2022-08-19T05:52:21;28.30;;;12.50;;
52184;SDS011;38160;52.876;18.778;2022-08-19T05:54:53;28.35;;;13.78;;
52184;SDS011;38160;52.876;18.778;2022-08-19T05:57:26;25.68;;;12.75;;
52184;SDS011;38160;52.876;18.778;2022-08-19T05:59:59;32.17;;;13.23;;
52184;SDS011;38160;52.876;18.778;2022-08-19T06:02:34;24.32;;;12.75;;
52184;SDS011;38160;52.876;18.778;2022-08-19T06:05:06;27.35;;;11.97;;
52184;SDS011;38160;52.876;18.778;2022-08-19T06:07:39;26.07;;;12.45;;
52184;SDS011;38160;52.876;18.778;2022-08-19T06:10:12;21.77;;;12.13;;
52184;SDS011;38160;52.876;18.778;2022-08-19T06:12:44;18.32;;;11.40;;
52184;SDS011;38160;52.876;18.778;2022-08-19T06:15:16;22.20;;;11.38;;
52184;SDS011;38160;52.876;18.778;2022-08-19T06:17:48;17.15;;;11.70;;
52184;SDS011;38160;52.876;18.778;2022-08-19T06:20:20;26.70;;;11.95;;
52184;SDS011;38160;52.876;18.778;2022-08-19T06:22:51;30.48;;;11.70;;
52184;SDS011;38160;52.876;18.778;2022-08-19T06:25:24;26.05;;;12.43;;
52184;SDS011;38160;52.876;18.778;2022-08-19T06:27:55;20.92;;;11.20;;
52184;SDS011;38160;52.876;18.778;2022-08-19T06:30:28;25.23;;;12.03;;
52184;SDS011;38160;52.876;18.778;2022-08-19T06:33:00;15.48;;;10.78;;
52184;SDS011;38160;52.876;18.778;2022-08-19T06:35:31;24.92;;;11.35;;
52184;SDS011;38160;52.876;18.778;2022-08-19T06:38:03;26.57;;;12.15;;
52184;SDS011;38160;52.876;18.778;2022-08-19T06:40:35;26.50;;;11.08;;
52184;SDS011;38160;52.876;18.778;2022-08-19T06:43:08;28.90;;;10.95;;
52184;SDS011;38160;52.876;18.778;2022-08-19T06:45:40;31.97;;;10.88;;
52184;SDS011;38160;52.876;18.778;2022-08-19T06:48:13;35.05;;;11.25;;
52184;SDS011;38160;52.876;18.778;2022-08-19T06:50:45;18.42;;;10.28;;
52184;SDS011;38160;52.876;18.778;2022-08-19T06:53:18;42.88;;;12.00;;
52184;SDS011;38160;52.876;18.778;2022-08-19T06:55:50;47.17;;;11.08;;
52184;SDS011;38160;52.876;18.778;2022-08-19T07:01:17;16.75;;;10.03;;
52184;SDS011;38160;52.876;18.778;2022-08-19T07:03:51;28.17;;;9.95;;
52184;SDS011;38160;52.876;18.778;2022-08-19T07:06:24;23.73;;;9.70;;
52184;SDS011;38160;52.876;18.778;2022-08-19T07:09:01;30.25;;;10.85;;
52184;SDS011;38160;52.876;18.778;2022-08-19T07:11:49;26.27;;;9.93;;
52184;SDS011;38160;52.876;18.778;2022-08-19T07:14:21;15.38;;;9.20;;
52184;SDS011;38160;52.876;18.778;2022-08-19T07:16:57;27.62;;;10.43;;
52184;SDS011;38160;52.876;18.778;2022-08-19T07:19:29;19.45;;;9.25;;
52184;SDS011;38160;52.876;18.778;2022-08-19T07:22:03;22.85;;;9.78;;
52184;SDS011;38160;52.876;18.778;2022-08-19T07:24:56;18.45;;;9.78;;
52184;SDS011;38160;52.876;18.778;2022-08-19T07:27:27;22.62;;;9.43;;
52184;SDS011;38160;52.876;18.778;2022-08-19T07:30:00;25.37;;;9.65;;
52184;SDS011;38160;52.876;18.778;2022-08-19T07:33:13;32.25;;;9.95;;
52184;SDS011;38160;52.876;18.778;2022-08-19T07:35:44;21.52;;;9.15;;
52184;SDS011;38160;52.876;18.778;2022-08-19T07:38:16;33.73;;;10.60;;
52184;SDS011;38160;52.876;18.778;2022-08-19T07:40:51;26.97;;;10.03;;
52184;SDS011;38160;52.876;18.778;2022-08-19T07:43:24;39.08;;;9.13;;
52184;SDS011;38160;52.876;18.778;2022-08-19T07:45:58;23.05;;;9.43;;
52184;SDS011;38160;52.876;18.778;2022-08-19T07:48:29;23.90;;;8.88;;
52184;SDS011;38160;52.876;18.778;2022-08-19T07:51:04;24.85;;;9.65;;
52184;SDS011;38160;52.876;18.778;2022-08-19T07:53:40;19.87;;;9.43;;
52184;SDS011;38160;52.876;18.778;2022-08-19T07:56:13;28.62;;;9.63;;
52184;SDS011;38160;52.876;18.778;2022-08-19T07:58:48;37.05;;;9.50;;
52184;SDS011;38160;52.876;18.778;2022-08-19T08:01:27;41.20;;;10.00;;
52184;SDS011;38160;52.876;18.778;2022-08-19T08:04:00;26.93;;;8.55;;
52184;SDS011;38160;52.876;18.778;2022-08-19T08:06:51;26.95;;;9.43;;
52184;SDS011;38160;52.876;18.778;2022-08-19T08:09:43;19.60;;;10.08;;
52184;SDS011;38160;52.876;18.778;2022-08-19T08:12:21;19.65;;;9.28;;
52184;SDS011;38160;52.876;18.778;2022-08-19T08:14:55;18.10;;;8.63;;
52184;SDS011;38160;52.876;18.778;2022-08-19T08:17:32;13.38;;;8.78;;
52184;SDS011;38160;52.876;18.778;2022-08-19T08:20:08;20.12;;;8.40;;
52184;SDS011;38160;52.876;18.778;2022-08-19T08:22:44;19.23;;;9.35;;
52184;SDS011;38160;52.876;18.778;2022-08-19T08:25:22;36.80;;;9.75;;
52184;SDS011;38160;52.876;18.778;2022-08-19T08:27:55;30.80;;;9.60;;
52184;SDS011;38160;52.876;18.778;2022-08-19T08:30:27;23.95;;;8.98;;
52184;SDS011;38160;52.876;18.778;2022-08-19T08:33:00;21.20;;;9.45;;
52184;SDS011;38160;52.876;18.778;2022-08-19T08:35:32;19.77;;;8.98;;
52184;SDS011;38160;52.876;18.778;2022-08-19T08:38:04;17.42;;;9.15;;
52184;SDS011;38160;52.876;18.778;2022-08-19T08:43:28;17.57;;;8.75;;
52184;SDS011;38160;52.876;18.778;2022-08-19T08:52:31;20.43;;;8.15;;
52184;SDS011;38160;52.876;18.778;2022-08-19T08:55:08;37.30;;;8.80;;
52184;SDS011;38160;52.876;18.778;2022-08-19T09:00:37;52.60;;;9.00;;
52184;SDS011;38160;52.876;18.778;2022-08-19T09:03:22;31.20;;;8.73;;
52184;SDS011;38160;52.876;18.778;2022-08-19T09:06:04;27.65;;;7.75;;
52184;SDS011;38160;52.876;18.778;2022-08-19T09:09:05;33.85;;;8.75;;
52184;SDS011;38160;52.876;18.778;2022-08-19T09:14:32;27.05;;;8.28;;
52184;SDS011;38160;52.876;18.778;2022-08-19T09:17:24;20.55;;;8.50;;
52184;SDS011;38160;52.876;18.778;2022-08-19T09:20:03;21.97;;;8.63;;
52184;SDS011;38160;52.876;18.778;2022-08-19T09:22:44;16.67;;;8.45;;
52184;SDS011;38160;52.876;18.778;2022-08-19T09:25:18;51.02;;;9.23;;
52184;SDS011;38160;52.876;18.778;2022-08-19T09:27:55;22.75;;;8.98;;
52184;SDS011;38160;52.876;18.778;2022-08-19T09:30:54;23.87;;;7.40;;
52184;SDS011;38160;52.876;18.778;2022-08-19T09:33:25;24.32;;;8.30;;
52184;SDS011;38160;52.876;18.778;2022-08-19T09:36:09;32.95;;;8.38;;
52184;SDS011;38160;52.876;18.778;2022-08-19T09:38:39;26.15;;;8.03;;
52184;SDS011;38160;52.876;18.778;2022-08-19T09:41:13;18.30;;;7.40;;
52184;SDS011;38160;52.876;18.778;2022-08-19T09:43:49;21.95;;;8.70;;
52184;SDS011;38160;52.876;18.778;2022-08-19T09:46:24;18.57;;;8.00;;
52184;SDS011;38160;52.876;18.778;2022-08-19T09:48:59;20.70;;;7.75;;
52184;SDS011;38160;52.876;18.778;2022-08-19T09:51:31;23.40;;;7.92;;
52184;SDS011;38160;52.876;18.778;2022-08-19T09:54:06;18.10;;;8.13;;
52184;SDS011;38160;52.876;18.778;2022-08-19T09:56:37;25.50;;;7.83;;
52184;SDS011;38160;52.876;18.778;2022-08-19T09:59:09;17.98;;;8.65;;
52184;SDS011;38160;52.876;18.778;2022-08-19T10:01:42;18.90;;;7.58;;
52184;SDS011;38160;52.876;18.778;2022-08-19T10:04:14;16.15;;;7.85;;
52184;SDS011;38160;52.876;18.778;2022-08-19T10:06:46;15.75;;;7.80;;
52184;SDS011;38160;52.876;18.778;2022-08-19T10:09:20;20.10;;;7.85;;
52184;SDS011;38160;52.876;18.778;2022-08-19T10:11:52;28.73;;;8.43;;
52184;SDS011;38160;52.876;18.778;2022-08-19T10:14:27;23.60;;;8.00;;
52184;SDS011;38160;52.876;18.778;2022-08-19T10:17:04;16.32;;;7.62;;
52184;SDS011;38160;52.876;18.778;2022-08-19T10:19:36;26.55;;;8.48;;
52184;SDS011;38160;52.876;18.778;2022-08-19T10:22:07;19.90;;;7.55;;
52184;SDS011;38160;52.876;18.778;2022-08-19T10:24:39;17.37;;;7.47;;
52184;SDS011;38160;52.876;18.778;2022-08-19T10:27:13;32.75;;;10.50;;
52184;SDS011;38160;52.876;18.778;2022-08-19T10:29:47;41.73;;;10.50;;
52184;SDS011;38160;52.876;18.778;2022-08-19T10:32:20;27.25;;;11.20;;
52184;SDS011;38160;52.876;18.778;2022-08-19T10:34:52;21.65;;;6.90;;
52184;SDS011;38160;52.876;18.778;2022-08-19T10:37:24;23.52;;;11.65;;
52184;SDS011;38160;52.876;18.778;2022-08-19T10:39:56;45.55;;;31.57;;
52184;SDS011;38160;52.876;18.778;2022-08-19T10:42:27;24.63;;;14.60;;
52184;SDS011;38160;52.876;18.778;2022-08-19T10:45:01;21.52;;;13.22;;
52184;SDS011;38160;52.876;18.778;2022-08-19T10:47:36;31.97;;;10.13;;
52184;SDS011;38160;52.876;18.778;2022-08-19T10:50:08;23.75;;;9.53;;
52184;SDS011;38160;52.876;18.778;2022-08-19T10:53:02;18.60;;;9.43;;
52184;SDS011;38160;52.876;18.778;2022-08-19T10:55:34;22.70;;;7.85;;
52184;SDS011;38160;52.876;18.778;2022-08-19T10:58:25;19.23;;;7.87;;
52184;SDS011;38160;52.876;18.778;2022-08-19T11:00:57;17.12;;;7.50;;
52184;SDS011;38160;52.876;18.778;2022-08-19T11:03:29;19.50;;;7.97;;
52184;SDS011;38160;52.876;18.778;2022-08-19T11:06:02;16.93;;;7.20;;
52184;SDS011;38160;52.876;18.778;2022-08-19T11:08:37;15.98;;;7.62;;
52184;SDS011;38160;52.876;18.778;2022-08-19T11:11:09;19.45;;;7.85;;
52184;SDS011;38160;52.876;18.778;2022-08-19T11:13:41;12.88;;;6.85;;
52184;SDS011;38160;52.876;18.778;2022-08-19T11:16:14;32.15;;;8.33;;
52184;SDS011;38160;52.876;18.778;2022-08-19T11:18:50;22.98;;;6.62;;
52184;SDS011;38160;52.876;18.778;2022-08-19T11:21:27;24.15;;;7.40;;
52184;SDS011;38160;52.876;18.778;2022-08-19T11:24:11;18.25;;;6.62;;
52184;SDS011;38160;52.876;18.778;2022-08-19T11:26:50;34.53;;;7.45;;
52184;SDS011;38160;52.876;18.778;2022-08-19T11:29:23;23.67;;;6.75;;
52184;SDS011;38160;52.876;18.778;2022-08-19T11:31:56;28.30;;;7.65;;
52184;SDS011;38160;52.876;18.778;2022-08-19T11:34:28;31.87;;;6.92;;
52184;SDS011;38160;52.876;18.778;2022-08-19T11:37:00;19.23;;;7.60;;
52184;SDS011;38160;52.876;18.778;2022-08-19T11:39:34;24.80;;;6.78;;
52184;SDS011;38160;52.876;18.778;2022-08-19T11:42:07;29.63;;;6.63;;
52184;SDS011;38160;52.876;18.778;2022-08-19T11:44:57;22.58;;;7.50;;
52184;SDS011;38160;52.876;18.778;2022-08-19T11:47:29;14.98;;;7.03;;
52184;SDS011;38160;52.876;18.778;2022-08-19T11:50:01;18.55;;;6.50;;
52184;SDS011;38160;52.876;18.778;2022-08-19T11:52:33;15.85;;;6.70;;
52184;SDS011;38160;52.876;18.778;2022-08-19T11:55:06;32.10;;;7.70;;
52184;SDS011;38160;52.876;18.778;2022-08-19T11:57:39;19.90;;;6.75;;
52184;SDS011;38160;52.876;18.778;2022-08-19T12:00:14;19.37;;;6.97;;
52184;SDS011;38160;52.876;18.778;2022-08-19T12:02:46;21.55;;;6.62;;
52184;SDS011;38160;52.876;18.778;2022-08-19T12:05:18;17.77;;;6.80;;
52184;SDS011;38160;52.876;18.778;2022-08-19T12:07:50;20.08;;;6.78;;
52184;SDS011;38160;52.876;18.778;2022-08-19T12:10:22;16.10;;;6.20;;
52184;SDS011;38160;52.876;18.778;2022-08-19T12:12:54;32.58;;;6.80;;
52184;SDS011;38160;52.876;18.778;2022-08-19T12:15:26;33.08;;;7.50;;
52184;SDS011;38160;52.876;18.778;2022-08-19T12:17:59;22.40;;;7.28;;
52184;SDS011;38160;52.876;18.778;2022-08-19T12:20:32;23.90;;;6.87;;
52184;SDS011;38160;52.876;18.778;2022-08-19T12:23:07;37.55;;;7.45;;
52184;SDS011;38160;52.876;18.778;2022-08-19T12:25:45;20.62;;;7.22;;
52184;SDS011;38160;52.876;18.778;2022-08-19T12:28:23;19.45;;;5.95;;
52184;SDS011;38160;52.876;18.778;2022-08-19T12:30:56;16.62;;;6.72;;
52184;SDS011;38160;52.876;18.778;2022-08-19T12:33:28;24.30;;;7.42;;
52184;SDS011;38160;52.876;18.778;2022-08-19T12:36:00;16.57;;;7.65;;
52184;SDS011;38160;52.876;18.778;2022-08-19T12:38:36;28.00;;;6.95;;
52184;SDS011;38160;52.876;18.778;2022-08-19T12:41:10;33.78;;;7.65;;
52184;SDS011;38160;52.876;18.778;2022-08-19T12:43:44;20.80;;;7.20;;
52184;SDS011;38160;52.876;18.778;2022-08-19T12:46:19;20.80;;;6.80;;
52184;SDS011;38160;52.876;18.778;2022-08-19T12:48:51;23.47;;;9.40;;
52184;SDS011;38160;52.876;18.778;2022-08-19T12:51:23;34.18;;;8.38;;
52184;SDS011;38160;52.876;18.778;2022-08-19T12:53:57;38.15;;;8.45;;
52184;SDS011;38160;52.876;18.778;2022-08-19T12:56:29;17.52;;;7.40;;
52184;SDS011;38160;52.876;18.778;2022-08-19T12:59:02;23.27;;;7.83;;
52184;SDS011;38160;52.876;18.778;2022-08-19T13:01:35;39.08;;;7.95;;
52184;SDS011;38160;52.876;18.778;2022-08-19T13:04:06;35.08;;;9.73;;
52184;SDS011;38160;52.876;18.778;2022-08-19T13:06:38;16.30;;;7.28;;
52184;SDS011;38160;52.876;18.778;2022-08-19T13:09:10;43.45;;;8.80;;
52184;SDS011;38160;52.876;18.778;2022-08-19T13:11:42;52.58;;;9.10;;
52184;SDS011;38160;52.876;18.778;2022-08-19T13:14:14;22.87;;;7.80;;
52184;SDS011;38160;52.876;18.778;2022-08-19T13:16:45;34.03;;;8.33;;
52184;SDS011;38160;52.876;18.778;2022-08-19T13:19:17;30.68;;;8.35;;
52184;SDS011;38160;52.876;18.778;2022-08-19T13:21:51;19.73;;;7.65;;
52184;SDS011;38160;52.876;18.778;2022-08-19T13:24:24;26.60;;;7.53;;
52184;SDS011;38160;52.876;18.778;2022-08-19T13:26:56;19.35;;;7.15;;
52184;SDS011;38160;52.876;18.778;2022-08-19T13:29:30;22.17;;;6.58;;
52184;SDS011;38160;52.876;18.778;2022-08-19T13:32:23;30.48;;;8.18;;
52184;SDS011;38160;52.876;18.778;2022-08-19T13:35:13;22.93;;;7.33;;
52184;SDS011;38160;52.876;18.778;2022-08-19T13:37:45;24.47;;;7.65;;
52184;SDS011;38160;52.876;18.778;2022-08-19T13:40:19;48.28;;;8.65;;
52184;SDS011;38160;52.876;18.778;2022-08-19T13:42:54;19.40;;;7.12;;
52184;SDS011;38160;52.876;18.778;2022-08-19T13:45:27;21.55;;;7.60;;
52184;SDS011;38160;52.876;18.778;2022-08-19T13:48:01;32.25;;;8.05;;
52184;SDS011;38160;52.876;18.778;2022-08-19T13:50:42;25.25;;;7.75;;
52184;SDS011;38160;52.876;18.778;2022-08-19T13:53:17;37.78;;;7.75;;
52184;SDS011;38160;52.876;18.778;2022-08-19T13:55:49;31.60;;;7.40;;
52184;SDS011;38160;52.876;18.778;2022-08-19T13:58:21;34.38;;;7.67;;
52184;SDS011;38160;52.876;18.778;2022-08-19T14:00:53;28.70;;;8.10;;
52184;SDS011;38160;52.876;18.778;2022-08-19T14:03:25;39.40;;;7.55;;
52184;SDS011;38160;52.876;18.778;2022-08-19T14:05:57;50.58;;;8.85;;
52184;SDS011;38160;52.876;18.778;2022-08-19T14:08:29;35.28;;;7.72;;
52184;SDS011;38160;52.876;18.778;2022-08-19T14:11:02;37.40;;;8.23;;
52184;SDS011;38160;52.876;18.778;2022-08-19T14:13:34;41.40;;;8.68;;
52184;SDS011;38160;52.876;18.778;2022-08-19T14:16:10;21.07;;;7.65;;
52184;SDS011;38160;52.876;18.778;2022-08-19T14:18:44;136.77;;;13.50;;
52184;SDS011;38160;52.876;18.778;2022-08-19T14:21:20;109.40;;;11.65;;
52184;SDS011;38160;52.876;18.778;2022-08-19T14:23:54;35.38;;;8.80;;
52184;SDS011;38160;52.876;18.778;2022-08-19T14:26:26;35.90;;;9.00;;
52184;SDS011;38160;52.876;18.778;2022-08-19T14:28:58;42.85;;;8.73;;
52184;SDS011;38160;52.876;18.778;2022-08-19T14:31:29;27.27;;;8.08;;
52184;SDS011;38160;52.876;18.778;2022-08-19T14:34:01;26.12;;;7.83;;
52184;SDS011;38160;52.876;18.778;2022-08-19T14:36:33;21.77;;;7.67;;
52184;SDS011;38160;52.876;18.778;2022-08-19T14:39:07;21.35;;;8.73;;
52184;SDS011;38160;52.876;18.778;2022-08-19T14:41:40;45.03;;;8.57;;
52184;SDS011;38160;52.876;18.778;2022-08-19T14:44:13;24.40;;;7.53;;
52184;SDS011;38160;52.876;18.778;2022-08-19T14:46:44;30.37;;;8.33;;
52184;SDS011;38160;52.876;18.778;2022-08-19T14:49:16;16.48;;;6.90;;
52184;SDS011;38160;52.876;18.778;2022-08-19T14:51:49;24.90;;;7.55;;
52184;SDS011;38160;52.876;18.778;2022-08-19T14:54:21;33.40;;;7.97;;
52184;SDS011;38160;52.876;18.778;2022-08-19T14:56:52;35.10;;;8.08;;
52184;SDS011;38160;52.876;18.778;2022-08-19T14:59:24;38.20;;;8.70;;
52184;SDS011;38160;52.876;18.778;2022-08-19T15:01:56;27.87;;;8.30;;
52184;SDS011;38160;52.876;18.778;2022-08-19T15:04:28;84.90;;;10.60;;
52184;SDS011;38160;52.876;18.778;2022-08-19T15:07:00;31.42;;;8.48;;
52184;SDS011;38160;52.876;18.778;2022-08-19T15:09:34;20.45;;;7.87;;
52184;SDS011;38160;52.876;18.778;2022-08-19T15:12:05;20.12;;;7.30;;
52184;SDS011;38160;52.876;18.778;2022-08-19T15:14:38;21.05;;;8.20;;
52184;SDS011;38160;52.876;18.778;2022-08-19T15:17:13;30.17;;;7.97;;
52184;SDS011;38160;52.876;18.778;2022-08-19T15:19:45;16.77;;;7.58;;
52184;SDS011;38160;52.876;18.778;2022-08-19T15:22:16;21.42;;;7.75;;